WetterOnline ( https://www.wetteronline.de )

Wetter aktuell Darß/Zingst

Aktuelles Wetter: Barth (7m)

6-stündlich | Neueste Meldungen
Ortszeit Temperatur Wetter
Mo, 21.10. 20:00 14.0° C bedeckt
Mo, 21.10. 14:00 13.6° C bedeckt
Mo, 21.10. 8:00 11.1° C wolkig
Mo, 21.10. 2:00 11.4° C Sprühregen
So, 20.10. 20:00 12.1° C Sprühregen
So, 20.10. 14:00 13.8° C bedeckt
So, 20.10. 8:00 11.0° C bedeckt
So, 20.10. 2:00 12.5° C Regen
Ortszeit Temperatur Wetter
Di, 22.10. 1:00 7.6° C Nebel
Di, 22.10. 0:50 7.6° C Nebel
Di, 22.10. 0:40 7.1° C Nebel
Di, 22.10. 0:30 8.2° C Nebel
Di, 22.10. 0:20 8.2° C Nebel
Di, 22.10. 0:10 7.3° C Nebel
Di, 22.10. 0:00 8.1° C Nebel
Mo, 21.10. 23:30 9.2° C Nebel
Mo, 21.10. 23:00 9.5° C Nebel
Mo, 21.10. 22:30 9.6° C Nebel
Mo, 21.10. 22:00 9.8° C Nebel
Ortszeit Relative Feuchte Sichtweite
Mo, 21.10. 20:00 92% 5.0 km
Mo, 21.10. 14:00 91% 8 km
Mo, 21.10. 8:00 92% 60 km
Mo, 21.10. 2:00 92% 12 km
So, 20.10. 20:00 96% 8 km
So, 20.10. 14:00 86% 50 km
So, 20.10. 8:00 94% 30 km
So, 20.10. 2:00 90% 50 km
Ortszeit Relative Feuchte Sichtweite
Di, 22.10. 1:00 99% 100 m
Di, 22.10. 0:50 99% -
Di, 22.10. 0:40 97% -
Di, 22.10. 0:30 98% 100 m
Di, 22.10. 0:20 98% -
Di, 22.10. 0:10 96% -
Di, 22.10. 0:00 97% <100 m
Mo, 21.10. 23:30 97% <100 m
Mo, 21.10. 23:00 100% 100 m
Mo, 21.10. 22:30 97% <100 m
Mo, 21.10. 22:00 99% 100 m
Ortszeit Niederschlagsmenge Niederschlagsart
Mo, 21.10. 20:00 0.1 l/m2 in 12 Std. Regen
Mo, 21.10. 14:00 0.1 l/m2 in 6 Std. Regen
Mo, 21.10. 8:00 3 l/m2 in 12 Std. Regen
Mo, 21.10. 2:00 3 l/m2 in 6 Std. Regen
So, 20.10. 20:00 0.4 l/m2 in 12 Std. Regen
So, 20.10. 14:00 0.1 l/m2 in 6 Std. Regen
So, 20.10. 8:00 0.5 l/m2 in 12 Std. Regen
So, 20.10. 2:00 0.5 l/m2 in 6 Std. Regen
Ortszeit Niederschlagsmenge Niederschlagsart
Di, 22.10. 1:00 0.0 l/m2 in 1 Std. -
Di, 22.10. 0:50 keine Meldung -
Di, 22.10. 0:40 keine Meldung -
Di, 22.10. 0:30 0.0 l/m2 in 1 Std. -
Di, 22.10. 0:20 keine Meldung -
Di, 22.10. 0:10 keine Meldung -
Di, 22.10. 0:00 0.0 l/m2 in 1 Std. -
Mo, 21.10. 23:30 0.0 l/m2 in 1 Std. -
Mo, 21.10. 23:00 0.0 l/m2 in 1 Std. -
Mo, 21.10. 22:30 0.0 l/m2 in 1 Std. -
Mo, 21.10. 22:00 0.0 l/m2 in 1 Std. -
Ortszeit Stärke Spitze Richtung
km/h Bft. km/h Grad Sektor
Mo, 21.10. 20:00 11 2 25 210° SW
Mo, 21.10. 14:00 22 4 36 110° O
Mo, 21.10. 8:00 11 2 32 60° NO
Mo, 21.10. 2:00 15 3 30 30° NO
So, 20.10. 20:00 4 1 14 340° N
So, 20.10. 14:00 7 2 15 190° S
So, 20.10. 8:00 11 2 14 210° SW
So, 20.10. 2:00 9 2 26 180° S
Ortszeit Stärke Spitze Richtung
km/h Bft. km/h Grad Sektor
Di, 22.10. 1:00 4 1 7 160° S
Di, 22.10. 0:50 4 1 - 160° S
Di, 22.10. 0:40 4 1 - 160° S
Di, 22.10. 0:30 0 0 7 - -
Di, 22.10. 0:20 2 1 - 190° S
Di, 22.10. 0:10 6 1 - 210° SW
Di, 22.10. 0:00 4 1 11 240° SW
Mo, 21.10. 23:30 6 1 11 170° S
Mo, 21.10. 23:00 7 2 11 200° S
Mo, 21.10. 22:30 7 2 11 170° S
Mo, 21.10. 22:00 7 2 7 200° S
Ortszeit Untergrenze Bedeckung Gattung
total tief tief mittel hoch
Mo, 21.10. 20:00 300 m 8/8 8/8 - - -
Mo, 21.10. 14:00 180 m 8/8 8/8 - - -
Mo, 21.10. 8:00 870 m 8/8 2/8 - - -
Mo, 21.10. 2:00 360 m 8/8 8/8 - - -
So, 20.10. 20:00 1050 m 8/8 8/8 - - -
So, 20.10. 14:00 300 m 8/8 8/8 - - -
So, 20.10. 8:00 2100 m 8/8 8/8 - - -
So, 20.10. 2:00 2400 m 7/8 7/8 - - -
Ortszeit Bedeckungsgrad in Achtel und Wolkenuntergrenze
Di, 22.10. 1:00 1(1230m)
Di, 22.10. 0:50 1(1230m) 2(8700m)
Di, 22.10. 0:40 2(8700m) 3(9000m) 3(9000m)
Di, 22.10. 0:30 3(9000m) 3(9000m) 4(9000m)
Di, 22.10. 0:20 3(9000m) 3(9000m)
Di, 22.10. 0:10 keine Wolken
Di, 22.10. 0:00 keine Wolken
Mo, 21.10. 23:30 keine Wolken
Mo, 21.10. 23:00 5(4500m)
Mo, 21.10. 22:30 1(4200m)
Mo, 21.10. 22:00 2(510m) 6(4500m) 7(9000m)
Ortszeit Luftdruck NN (hPa) Tendenz (hPa in 3 Std.)
Mo, 21.10. 20:00 1019 + 2,0
Mo, 21.10. 14:00 1018 + 0,9
Mo, 21.10. 8:00 1017 + 1,2
Mo, 21.10. 2:00 1015 + 0,9
So, 20.10. 20:00 1014 + 1,6
So, 20.10. 14:00 1012 + 0,3
So, 20.10. 8:00 1010 + 1,1
So, 20.10. 2:00 1008 + 0,5
Ortszeit Luftdruck NN (hPa) Tendenz (hPa in 3 Std.)
Di, 22.10. 1:00 1020 + 0,3
Di, 22.10. 0:50 1020 keine Meldung
Di, 22.10. 0:40 1020 keine Meldung
Di, 22.10. 0:30 1020 + 0,4
Di, 22.10. 0:20 1020 keine Meldung
Di, 22.10. 0:10 1020 keine Meldung
Di, 22.10. 0:00 1020 + 0,3
Mo, 21.10. 23:30 1020 + 0,3
Mo, 21.10. 23:00 1020 + 0,3
Mo, 21.10. 22:30 1020 + 0,7
Mo, 21.10. 22:00 1020 + 1,1
Ortszeit Schneehöhe (cm)
Mo, 21.10. 20:00 0
Mo, 21.10. 14:00 0
Mo, 21.10. 8:00 0
Mo, 21.10. 2:00 0
So, 20.10. 20:00 0
So, 20.10. 14:00 0
So, 20.10. 8:00 0
So, 20.10. 2:00 0
Ortszeit Schneehöhe (cm)
Di, 22.10. 1:00 0
Di, 22.10. 0:50 0
Di, 22.10. 0:40 0
Di, 22.10. 0:30 0
Di, 22.10. 0:20 0
Di, 22.10. 0:10 0
Di, 22.10. 0:00 0
Mo, 21.10. 23:30 0
Mo, 21.10. 23:00 0
Mo, 21.10. 22:30 0
Mo, 21.10. 22:00 0
Link zu dieser Seite / Seite empfehlen

Das Wetter in ...